createdAt,value
2016-12-31T00:51:45.989Z,83.299
2016-12-31T01:47:00.624Z,85.378
2016-12-31T02:42:36.745Z,84.002
2016-12-31T03:37:58.025Z,84.311
2016-12-31T04:33:20.471Z,85.996
2016-12-31T05:28:50.637Z,86.700
2016-12-31T06:24:20.257Z,87.776
2016-12-31T07:19:50.938Z,88.588
2016-12-31T15:37:39.358Z,72.117
2016-12-31T15:38:49.583Z,69.903
2016-12-31T15:41:24.001Z,64.613
2016-12-31T15:44:23.172Z,63.312
2016-12-31T15:47:29.600Z,63.473
2016-12-31T15:50:42.183Z,61.658
2016-12-31T15:53:48.291Z,61.421
2016-12-31T15:59:34.817Z,54.031
2016-12-31T16:02:32.616Z,57.133
2016-12-31T16:05:38.122Z,64.608
2016-12-31T16:08:48.652Z,69.675
2016-12-31T16:11:47.254Z,73.717
2016-12-31T16:14:58.719Z,77.076
2016-12-31T16:18:03.958Z,79.059
2016-12-31T16:21:09.100Z,80.826
2016-12-31T16:24:08.265Z,81.911
2016-12-31T16:27:19.904Z,83.199
2016-12-31T16:30:24.485Z,83.731
2016-12-31T16:33:29.466Z,83.882
2016-12-31T16:36:28.668Z,84.054
2016-12-31T16:39:40.345Z,84.503
2016-12-31T16:42:39.691Z,84.781
2016-12-31T16:45:45.479Z,84.802
2016-12-31T16:52:02.712Z,85.635
2016-12-31T16:55:08.110Z,85.628
2016-12-31T16:58:13.517Z,85.662
2016-12-31T17:01:18.829Z,86.270
2016-12-31T17:04:18.133Z,86.171
2016-12-31T17:07:23.507Z,86.301
2016-12-31T17:10:29.216Z,86.154
2016-12-31T17:13:34.857Z,86.415
2016-12-31T17:16:46.632Z,86.681
2016-12-31T17:19:51.300Z,86.916
2016-12-31T17:22:57.169Z,87.078
2016-12-31T17:25:56.534Z,87.059
2016-12-31T17:29:02.285Z,87.013
2016-12-31T17:32:08.009Z,86.943
2016-12-31T17:35:13.839Z,86.915
2016-12-31T17:38:19.340Z,86.856
2016-12-31T17:44:36.629Z,86.743
2016-12-31T17:47:41.885Z,86.535
2016-12-31T17:50:41.296Z,86.285
2016-12-31T17:53:52.782Z,86.163
2016-12-31T17:56:52.163Z,86.405
2016-12-31T17:59:57.604Z,86.570
2016-12-31T18:03:03.423Z,86.850
2016-12-31T18:06:14.827Z,86.928
2016-12-31T18:12:19.985Z,87.131
2016-12-31T18:15:31.724Z,87.527
2016-12-31T18:18:37.011Z,87.595
2016-12-31T18:21:36.012Z,87.977
2016-12-31T18:24:41.627Z,87.962
2016-12-31T18:27:53.317Z,88.234
2016-12-31T18:30:52.713Z,88.359
2016-12-31T18:34:04.121Z,88.566
2016-12-31T18:37:03.527Z,88.837
2016-12-31T18:40:15.978Z,88.846
2016-12-31T18:43:21.344Z,89.051
2016-12-31T18:46:26.480Z,89.247
2016-12-31T18:49:31.910Z,89.103
2016-12-31T18:52:37.011Z,88.916
2016-12-31T18:55:35.453Z,89.120
2016-12-31T18:58:48.194Z,89.094
2016-12-31T19:01:47.633Z,89.173
2016-12-31T19:04:59.267Z,89.258
2016-12-31T19:07:58.604Z,89.487
2016-12-31T19:11:10.344Z,89.667
2016-12-31T19:14:15.747Z,89.786
2016-12-31T19:17:21.017Z,89.683
2016-12-31T19:20:20.465Z,89.653
2016-12-31T19:23:32.174Z,89.828
2016-12-31T19:26:31.476Z,90.032
2016-12-31T19:29:37.082Z,89.807
2016-12-31T19:32:48.571Z,89.637
2016-12-31T19:35:47.812Z,89.912
2016-12-31T19:38:53.453Z,89.944
2016-12-31T19:42:05.068Z,90.106
2016-12-31T19:45:04.413Z,90.083
2016-12-31T19:48:16.068Z,90.040
2016-12-31T19:51:21.463Z,89.752
2016-12-31T19:54:20.855Z,89.588
2016-12-31T19:57:26.643Z,89.461
2016-12-31T20:00:38.230Z,89.416
2016-12-31T20:03:37.685Z,89.372
2016-12-31T20:06:48.801Z,89.456
2016-12-31T20:09:54.217Z,89.590
2016-12-31T20:12:59.482Z,89.343
2016-12-31T20:15:58.964Z,89.608
2016-12-31T20:19:10.245Z,89.812
2016-12-31T20:22:15.655Z,89.638
2016-12-31T20:25:20.874Z,89.230
2016-12-31T20:28:26.273Z,89.241
2016-12-31T20:31:25.745Z,89.175
2016-12-31T20:34:31.524Z,89.362
2016-12-31T20:37:43.269Z,89.208
2016-12-31T20:40:48.744Z,89.309
2016-12-31T20:46:53.774Z,89.100
2016-12-31T20:49:59.563Z,89.062
2016-12-31T20:53:12.137Z,88.977
2016-12-31T20:56:17.601Z,89.086
2016-12-31T20:59:22.968Z,89.112
2016-12-31T21:02:28.313Z,88.928
2016-12-31T21:05:27.736Z,88.975
2016-12-31T21:08:39.540Z,89.000
2016-12-31T21:11:38.988Z,89.050
2016-12-31T21:14:44.766Z,89.054
2016-12-31T21:17:56.467Z,88.916
2016-12-31T21:21:01.909Z,89.009
2016-12-31T21:24:06.863Z,89.056
2016-12-31T21:27:12.212Z,89.085
2016-12-31T21:30:17.711Z,88.959
2016-12-31T21:33:23.092Z,89.447
2016-12-31T21:36:28.470Z,89.643
2016-12-31T21:42:40.483Z,89.666
2016-12-31T21:45:45.883Z,89.833
2016-12-31T21:48:51.187Z,89.740
2016-12-31T21:51:56.389Z,89.670
2016-12-31T21:55:01.884Z,89.516
2016-12-31T22:01:12.955Z,89.238
2016-12-31T22:04:18.414Z,88.958
2016-12-31T22:07:23.754Z,88.610
2016-12-31T22:10:23.278Z,88.346
2016-12-31T22:13:35.114Z,88.086
2016-12-31T22:16:34.575Z,87.851
2016-12-31T22:19:46.470Z,87.819
2016-12-31T22:22:51.816Z,87.769
2016-12-31T22:25:56.967Z,87.950
2016-12-31T22:29:02.354Z,88.109
2016-12-31T22:32:01.711Z,88.211
2016-12-31T22:35:13.457Z,88.154
2016-12-31T22:38:12.880Z,88.083
2016-12-31T22:44:24.007Z,87.962
2016-12-31T22:47:35.734Z,87.782
2016-12-31T22:50:41.120Z,87.715
2016-12-31T22:53:46.607Z,88.059
2016-12-31T22:56:52.105Z,88.008
2016-12-31T22:59:51.444Z,87.914
2016-12-31T23:03:03.210Z,87.875
2016-12-31T23:06:08.658Z,87.861
2016-12-31T23:09:08.090Z,87.992
2016-12-31T23:12:13.677Z,88.066
2016-12-31T23:15:25.495Z,87.912
2016-12-31T23:18:30.673Z,87.961
2016-12-31T23:21:36.038Z,88.046
2016-12-31T23:24:35.342Z,87.887
2016-12-31T23:27:47.131Z,87.756
2016-12-31T23:30:46.496Z,87.795
2016-12-31T23:33:58.343Z,87.851
2016-12-31T23:37:03.760Z,87.858
2016-12-31T23:40:03.216Z,87.836
2016-12-31T23:43:09.006Z,87.935
2016-12-31T23:46:20.817Z,88.001
2016-12-31T23:49:26.319Z,87.998
2016-12-31T23:52:31.699Z,87.917
2016-12-31T23:55:31.032Z,87.880
2016-12-31T23:58:36.659Z,87.782
